Island Lake Airport
CYIV : now visible

Airfield :











YOU CAN JOIN US ON...

 
LOGIN :

Register | Disclaimer

   EN    FR    IT 

 









Legend :    VFR   Marginal VFR   IFR   Intensive IFR   Very Intensive IFR
Visi :
Ceiling :
>= 8 km
>= 3000ft
5 to 8 km
1000 to 3000 ft
1500m to 5 km
500 to 1000 ft
800 to 1500m
200 to 500 ft
< 800m
< 200 ft
Symbols :   Thunderstorms  Fog  Heavy snow  Heavy precipitations  Wind > 20 kt






- Airport Elevation : 770 ft
- IATA code : YIV


CYIV - Island Lake

CURRENT METAR :
  • 271435Z AUTO 33013G19KT 7SM BKN008 OVC013 06/05 A2979 RMK SLP100

EXPIRED METARs :
  • 271432Z AUTO 33014KT 4SM BR BKN008 OVC013 06/06 A2979 RMK SLP100
  • 271424Z AUTO 33012KT 2 1/2SM -RA BR BKN008 OVC013 07/06 A2978 RMK VIS VRB 1 1/2-3 SLP098
  • 271405Z AUTO 33010G15KT 3SM -RA BR OVC006 07/07 A2978 RMK SLP096
  • 271358Z AUTO 32009KT 2 1/2SM -RA BR BKN008 OVC011 07/07 A2977 RMK SLP094
  • 271337Z AUTO 31006KT 5SM BR BKN010 OVC015 07/07 A2977 RMK SLP092
  • 271313Z AUTO 32008KT 6SM -RA BR BKN007 OVC014 08/07 A2976 RMK SLP090
  • 271238Z AUTO 29007KT 5SM -RA BR OVC005 07/07 A2975 RMK SLP087
  • 271200Z AUTO 29007KT 9SM OVC007 07/07 A2975 RMK SLP084
  • 271137Z AUTO 30006KT 7SM OVC003 07/07 A2974 RMK SLP084
  • 271119Z AUTO 30007KT 2 1/4SM BR OVC003 07/07 A2974 RMK SLP082
  • 271109Z AUTO 29009KT 1 3/4SM BR OVC003 07/07 A2974 RMK SLP081
  • 271104Z AUTO 29008KT 2SM -RA BR OVC003 07/07 A2974 RMK SLP081
  • 271033Z AUTO 28009KT 2SM BR OVC003 07/07 A2973 RMK SLP078
  • 271023Z AUTO 28010KT 2 1/2SM BR OVC003 07/07 A2972 RMK SLP076
  • 271011Z AUTO 29009KT 5SM BR OVC003 07/07 A2972 RMK SLP077
  • 270948Z AUTO 29008KT 6SM BR OVC003 07/07 A2972 RMK SLP076

TAF TAF CYIV
Valid from the 27 at 13:00 until the 28 at 01:00 UTC


271240Z 2713/2801 30008KT P6SM OVC010
TEMPO 2713/2801 4SM -RA BR OVC006
BECMG 2714/2716 34010KT RMK FCST BASED ON AUTO OBS. NXT FCST BY 271900Z
CZWG FIR / North America



MET'MAP, your aeronautical weather chart ! - Copyright ORBIFLY December 2007 - Disclaimer

ORBIFLY MET'MAP TEAM :

Programming & Development : Alexandra Zaïnal
Original concept : Baudouin d'Aumeries
Technical & hardware support : Manuel Goepfert
Assistance : Marc-Olivier Méhu




SOURCES & CREDITS :

   NOAA       Earth
Advisory